x

Sentry Shoal (46131) Wave Buoy

11:00pm - Fri 5th Feb 2016 All times are PST. -8 hours from GMT.

  • Sig Wave height 1.0ft
  • Peak Period 3s
  • Wind
    4mph
  • Sea Temp 47°f
  • Air Temp 45°f
  • Sea Pressure 1018.6mb
  • Sentry Shoal
  • Sentry Shoal

More Historic Weather Station data

Upgrade to MSW Pro to gain access to the past 30 days of data for over 8000 Wavebouys and Weather Stations around the globe.

Join Pro

Comparision Forecast

View Surf forecast
   
Fri 02/05 11:00pm 1ft 3s 4
mph
1018.6mb 47f 45f
10:00pm 1.3ft 2s 11 16 mph 1016.7mb 47f 46f
9:00pm 2ft 5s 13 18 mph 1014.5mb 47f 46f
8:00pm 2.5ft 5s 16 18 mph 1012.2mb 47f 46f
7:00pm 4.5ft 6s 18 22 mph 1010.2mb 47f 47f
6:00pm 7ft 6s 25 31 mph 1007.1mb 47f 48f
5:00pm 8ft 6s 34 43 mph 1005.5mb 47f 49f
4:00pm 8ft 5s 38 45 mph 1004.4mb 47f 48f
3:00pm 7ft 5s 36 45 mph 1005.8mb 47f 48f
2:00pm 6ft 6s 27 34 mph 1007.2mb 47f 48f
1:00pm 5.5ft 6s 25 31 mph 1009.3mb 47f 48f
12:00pm 5.5ft 5s 29 38 mph 1011.3mb 47f 47f
11:00am 5ft 5s 31 40 mph 1012.9mb 47f 47f
10:00am 4.5ft 5s 22 27 mph 1014.1mb 47f 47f
9:00am 4.5ft 5s 22 29 mph 1015mb 47f 47f
8:00am 4.5ft 5s 27 31 mph 1015.7mb 47f 47f
7:00am 5ft 5s 31 38 mph 1016.3mb 47f 47f
6:00am 6ft 5s 34 40 mph 1017.1mb 47f 47f
5:00am 6.5ft 6s 34 40 mph 1018.1mb 47f 48f
4:00am 6ft 6s 31 38 mph 1018.8mb 47f 48f
3:00am 6ft 6s 31 38 mph 1019.7mb 47f 47f
2:00am 5.5ft 5s 29 36 mph 1021.1mb 47f 47f
1:00am 5.5ft 4s 27 34 mph 1022.2mb 47f 47f
12:00am 5.5ft 6s 25 31 mph 1022.5mb 47f 47f
Thu 02/04 11:00pm 5ft 5s 27 31 mph 1023.6mb 47f 46f
10:00pm 4.5ft 5s 25 31 mph 1023.5mb 47f 46f
9:00pm 4.5ft 4s 27 31 mph 1023.9mb 47f 46f
8:00pm 4.5ft 4s 25 29 mph 1024.1mb 47f 46f
7:00pm 4ft 4s 22 27 mph 1024.8mb 47f 46f
6:00pm 4ft 4s 20 25 mph 1025.3mb 47f 46f
5:00pm 3.5ft 4s 27 31 mph 1024.5mb 47f 46f
4:00pm 3.5ft 4s 25 29 mph 1024.9mb 47f 46f
3:00pm 3ft 4s 22 27 mph 1025mb 47f 45f
2:00pm 2.5ft 4s 18 20 mph 1025.4mb 47f 45f
1:00pm 2.5ft 4s 18 22 mph 1025.4mb 47f 45f
12:00pm 2.5ft 3s 18 22 mph 1024.7mb 47f 45f
11:00am 2ft 3s 18 22 mph 1024.6mb 47f 45f
10:00am 1ft 3s 16 20 mph 1024.2mb 47f 45f
9:00am 1.3ft 3s 4
mph
1024mb 46f 43f
8:00am 1.3ft 3s 7
mph
1023.1mb 46f 43f
7:00am 0.7ft 2s 13 16 mph 1022.2mb 46f 45f
6:00am 0.3ft 2s 4
mph
1021.8mb 46f 43f
5:00am 0.7ft 2s 4
mph
1020.8mb 46f 43f
4:00am 0.7ft 3s 4 7 mph 1020.2mb 47f 43f
3:00am 1ft 3s 4 9 mph 1019.1mb 47f 44f
2:00am 1.6ft 3s 4 9 mph 1017.9mb 47f 44f
1:00am 2ft 3s 13 16 mph 1017.1mb 47f 45f
12:00am 2ft 4s 13 16 mph 1016.7mb 47f 44f
Wed 02/03 11:00pm 2.5ft 5s 16 18 mph 1015.9mb 47f 44f
10:00pm 3ft 5s 2 4 mph 1015.2mb 47f 44f
9:00pm 4ft 5s 4 9 mph 1014mb 47f 43f
8:00pm 5ft 6s 18 27 mph 1012.8mb 47f 44f
7:00pm 5.5ft 6s 25 31 mph 1011.9mb 47f 44f
6:00pm 6ft 6s 27 34 mph 1011.2mb 47f 44f
5:00pm 5ft 5s 25 34 mph 1010.7mb 47f 44f
4:00pm 5ft 6s 22 27 mph 1010.9mb 47f 44f
3:00pm 5ft 6s 22 27 mph 1011.3mb 47f 44f
2:00pm 5ft 6s 27 34 mph 1012mb 47f 44f
1:00pm 4.5ft 5s 25 31 mph 1013.1mb 47f 44f
11:00am 5ft 6s 25 31 mph 1015mb 47f 44f
10:00am 5ft 5s 22 29 mph 1015.3mb 47f 44f
9:00am 5ft 6s 25 29 mph 1015.6mb 47f 44f
8:00am 5ft 5s 25 29 mph 1016.6mb 46f 44f
7:00am 4ft 4s 22 27 mph 1017.3mb 46f 44f
6:00am 2.5ft 4s 22 25 mph 1018mb 46f 43f
5:00am 2ft 3s 18 22 mph 1018.8mb 46f 42f
4:00am 1.6ft 3s 16 20 mph 1019.5mb 46f 42f
3:00am 1.6ft 3s 13 16 mph 1020.3mb 46f 43f
2:00am 1.3ft 3s 13 18 mph 1020.5mb 46f 43f
1:00am 1.3ft 3s 13 16 mph 1021.2mb 46f 43f
12:00am 1.3ft 3s 13 16 mph 1021.7mb 46f 43f
Tue 02/02 11:00pm 1.3ft 3s 13 16 mph 1021.8mb 46f 43f
10:00pm 1.3ft 3s 13 16 mph 1022.1mb 46f 43f
9:00pm 1.3ft 3s 13 16 mph 1022.2mb 46f 43f
8:00pm 1.3ft 3s 13 16 mph 1022.4mb 46f 43f
7:00pm 1.3ft 2s 13 16 mph 1022.4mb 46f 44f
6:00pm 1ft 2s 13 16 mph 1022.6mb 46f 43f
5:00pm 1ft 2s 11 13 mph 1022.6mb 46f 43f
4:00pm 0.7ft 3s 9 11 mph 1022.5mb 46f 43f
3:00pm 0.7ft 2s 9 11 mph 1022.6mb 46f 43f
2:00pm 0.7ft 2s 4 7 mph 1022.8mb 46f 42f
1:00pm 0.7ft 2s  -  2 mph 1023.2mb 45f 41f
12:00pm 0.3ft 2s 2
mph
1023.4mb 46f 40f
11:00am 0.3ft 2s  -  2 mph 1023.6mb 46f 40f
10:00am 0.3ft 2s 4
mph
1023.4mb 46f 40f
9:00am 0.3ft 2s 4 7 mph 1023.1mb 46f 40f